createdAt,value
2022-08-31T00:00:43.322Z,9.757511
2022-08-31T00:01:43.400Z,9.757310
2022-08-31T00:02:43.321Z,9.757276
2022-08-31T00:03:43.315Z,9.757153
2022-08-31T00:04:43.337Z,9.757544
2022-08-31T00:05:43.277Z,9.757551
2022-08-31T00:06:43.301Z,9.757472
2022-08-31T00:07:43.271Z,9.757568
2022-08-31T00:08:43.258Z,9.757472
2022-08-31T00:09:43.251Z,9.757420
2022-08-31T00:10:43.622Z,9.757529
2022-08-31T00:11:43.270Z,9.757487
2022-08-31T00:12:43.215Z,9.757472
2022-08-31T00:13:44.213Z,9.757487
2022-08-31T00:14:43.207Z,9.757524
2022-08-31T00:15:43.216Z,9.757537
2022-08-31T00:16:43.311Z,9.757406
2022-08-31T00:17:43.181Z,9.757352
2022-08-31T00:18:43.175Z,9.757484
2022-08-31T00:19:43.170Z,9.757465
2022-08-31T00:20:43.159Z,9.757420
2022-08-31T00:21:43.180Z,9.757478
2022-08-31T00:22:43.141Z,9.757481
2022-08-31T00:23:43.139Z,9.757555
2022-08-31T00:24:43.126Z,9.757420
2022-08-31T00:25:43.118Z,9.757456
2022-08-31T00:26:43.145Z,9.757449
2022-08-31T00:27:43.099Z,9.757453
2022-08-31T00:28:43.088Z,9.757413
2022-08-31T00:29:43.082Z,9.757464
2022-08-31T00:30:43.078Z,9.757479
2022-08-31T00:31:43.209Z,9.757427
2022-08-31T00:32:43.063Z,9.757474
2022-08-31T00:33:43.051Z,9.757490
2022-08-31T00:34:43.041Z,9.757460
2022-08-31T00:35:43.031Z,9.757436
2022-08-31T00:36:43.053Z,9.757491
2022-08-31T00:37:43.009Z,9.757466
2022-08-31T00:38:43.007Z,9.757487
2022-08-31T00:39:42.996Z,9.757519
2022-08-31T00:40:44.943Z,9.757518
2022-08-31T00:41:43.012Z,9.757543
2022-08-31T00:42:42.970Z,9.757528
2022-08-31T00:43:42.966Z,9.757483
2022-08-31T00:44:42.957Z,9.757449
2022-08-31T00:45:43.021Z,9.757424
2022-08-31T00:46:42.974Z,9.757448
2022-08-31T00:47:43.098Z,9.757502
2022-08-31T00:48:42.919Z,9.757504
2022-08-31T00:49:42.909Z,9.757470
2022-08-31T00:50:42.898Z,9.757474
2022-08-31T00:51:42.936Z,9.757547
2022-08-31T00:52:42.892Z,9.757481
2022-08-31T00:53:42.883Z,9.757416
2022-08-31T00:54:42.869Z,9.757426
2022-08-31T00:55:42.873Z,9.757407
2022-08-31T00:56:42.875Z,9.757462
2022-08-31T00:57:42.885Z,9.757445
2022-08-31T00:58:42.838Z,9.757487
2022-08-31T00:59:42.827Z,9.757306
2022-08-31T01:00:42.864Z,9.757460
2022-08-31T01:01:42.847Z,9.757537
2022-08-31T01:02:42.831Z,9.757424
2022-08-31T01:03:42.795Z,9.757341
2022-08-31T01:04:42.788Z,9.757291
2022-08-31T01:05:42.783Z,9.757303
2022-08-31T01:06:42.770Z,9.757469
2022-08-31T01:07:42.804Z,9.757475
2022-08-31T01:08:42.755Z,9.757445
2022-08-31T01:09:52.694Z,9.757498
2022-08-31T01:10:43.736Z,9.757453
2022-08-31T01:11:42.732Z,9.757373
2022-08-31T01:12:42.749Z,9.757416
2022-08-31T01:13:42.712Z,9.757385
2022-08-31T01:14:42.709Z,9.757415
2022-08-31T01:15:42.740Z,9.757476
2022-08-31T01:16:42.790Z,9.757470
2022-08-31T01:17:42.708Z,9.757401
2022-08-31T01:18:42.714Z,9.757465
2022-08-31T01:19:42.666Z,9.757402
2022-08-31T01:20:42.718Z,9.757424
2022-08-31T01:21:43.649Z,9.757548
2022-08-31T01:22:42.666Z,9.757530
2022-08-31T01:23:42.634Z,9.757507
2022-08-31T01:24:42.623Z,9.757518
2022-08-31T01:25:42.613Z,9.757545
2022-08-31T01:26:42.604Z,9.757613
2022-08-31T01:27:43.633Z,9.757622
2022-08-31T01:28:42.588Z,9.757578
2022-08-31T01:29:42.584Z,9.757528
2022-08-31T01:30:42.607Z,9.757435
2022-08-31T01:31:42.635Z,9.757421
2022-08-31T01:32:42.583Z,9.757437
2022-08-31T01:33:42.546Z,9.757593
2022-08-31T01:34:42.550Z,9.757483
2022-08-31T01:35:42.595Z,9.757444
2022-08-31T01:36:42.548Z,9.757458
2022-08-31T01:37:42.603Z,9.757508
2022-08-31T01:38:42.517Z,9.757465
2022-08-31T01:39:42.509Z,9.757453
2022-08-31T01:40:42.573Z,9.757453
2022-08-31T01:41:42.491Z,9.757438
2022-08-31T01:42:42.516Z,9.757431
2022-08-31T01:43:42.496Z,9.757445
2022-08-31T01:44:42.482Z,9.757477
2022-08-31T01:45:42.461Z,9.757490
2022-08-31T01:46:42.522Z,9.757500
2022-08-31T01:47:42.470Z,9.757492
2022-08-31T01:48:42.430Z,9.757497
2022-08-31T01:49:42.421Z,9.757486
2022-08-31T01:50:42.416Z,9.757741
2022-08-31T01:51:42.414Z,9.757759
2022-08-31T01:52:42.452Z,9.757628
2022-08-31T01:53:42.662Z,9.757686
2022-08-31T01:54:42.383Z,9.757528
2022-08-31T01:55:42.385Z,9.757548
2022-08-31T01:56:42.370Z,9.757835
2022-08-31T01:57:42.393Z,9.757742
2022-08-31T01:58:42.386Z,9.757626
2022-08-31T01:59:42.347Z,9.757635
2022-08-31T02:00:42.367Z,9.757836
2022-08-31T02:01:42.454Z,9.757652
2022-08-31T02:02:43.142Z,9.757743
2022-08-31T02:03:42.317Z,9.757731
2022-08-31T02:04:42.302Z,9.757762
2022-08-31T02:05:42.299Z,9.757788
2022-08-31T02:06:42.298Z,9.757767
2022-08-31T02:07:42.316Z,9.757738
2022-08-31T02:08:42.273Z,9.757552
2022-08-31T02:09:42.409Z,9.757597
2022-08-31T02:10:42.282Z,9.757611
2022-08-31T02:11:42.249Z,9.757632
2022-08-31T02:12:42.270Z,9.757668
2022-08-31T02:13:42.229Z,9.757722
2022-08-31T02:14:42.224Z,9.757779
2022-08-31T02:15:42.219Z,9.757620
2022-08-31T02:16:42.234Z,9.757704
2022-08-31T02:17:42.234Z,9.757679
2022-08-31T02:18:42.196Z,9.757715
2022-08-31T02:19:42.217Z,9.757742
2022-08-31T02:20:42.181Z,9.757866
2022-08-31T02:21:42.170Z,9.757695
2022-08-31T02:22:42.187Z,9.757805
2022-08-31T02:23:42.155Z,9.757675
2022-08-31T02:24:42.143Z,9.757713
2022-08-31T02:25:42.141Z,9.757626
2022-08-31T02:26:42.131Z,9.757666
2022-08-31T02:27:42.160Z,9.757625
2022-08-31T02:28:42.111Z,9.757642
2022-08-31T02:29:42.110Z,9.757776
2022-08-31T02:30:42.095Z,9.757724
2022-08-31T02:31:42.133Z,9.757671
2022-08-31T02:32:42.119Z,9.757745
2022-08-31T02:33:42.068Z,9.757595
2022-08-31T02:34:42.284Z,9.757558
2022-08-31T02:35:42.105Z,9.757568
2022-08-31T02:36:42.038Z,9.757689
2022-08-31T02:37:42.028Z,9.757673
2022-08-31T02:38:42.065Z,9.757651
2022-08-31T02:39:42.017Z,9.757751
2022-08-31T02:40:42.036Z,9.757714
2022-08-31T02:41:42.001Z,9.757729
2022-08-31T02:42:53.315Z,9.757703
2022-08-31T02:43:43.056Z,9.757702
2022-08-31T02:44:41.976Z,9.757763
2022-08-31T02:45:41.973Z,9.757854
2022-08-31T02:46:41.986Z,9.757659
2022-08-31T02:47:41.951Z,9.757629
2022-08-31T02:48:41.970Z,9.757651
2022-08-31T02:49:41.943Z,9.757652
2022-08-31T02:50:41.927Z,9.757671
2022-08-31T02:51:41.914Z,9.757626
2022-08-31T02:52:41.908Z,9.757563
2022-08-31T02:53:41.932Z,9.757626
2022-08-31T02:54:41.896Z,9.757682
2022-08-31T02:55:41.884Z,9.757638
2022-08-31T02:56:41.877Z,9.757680
2022-08-31T02:57:42.124Z,9.757696
2022-08-31T02:58:41.892Z,9.757683
2022-08-31T02:59:41.863Z,9.757725
2022-08-31T03:00:41.842Z,9.757649
2022-08-31T03:01:41.863Z,9.757640
2022-08-31T03:02:41.842Z,9.757558
2022-08-31T03:03:46.485Z,9.757523
2022-08-31T03:04:42.828Z,9.757392
2022-08-31T03:05:41.808Z,9.757460
2022-08-31T03:06:41.802Z,9.757423
2022-08-31T03:07:41.791Z,9.757483
2022-08-31T03:08:41.813Z,9.757488
2022-08-31T03:09:41.773Z,9.757461
2022-08-31T03:10:41.755Z,9.757428
2022-08-31T03:11:41.756Z,9.757385
2022-08-31T03:12:41.778Z,9.757463
2022-08-31T03:13:41.771Z,9.757483
2022-08-31T03:14:41.729Z,9.757505
2022-08-31T03:15:41.763Z,9.757465
2022-08-31T03:16:41.732Z,9.757443
2022-08-31T03:17:41.711Z,9.757565
2022-08-31T03:18:41.806Z,9.757587
2022-08-31T03:19:41.751Z,9.757551
2022-08-31T03:20:41.686Z,9.757429
2022-08-31T03:21:41.675Z,9.757487
2022-08-31T03:22:43.583Z,9.757517
2022-08-31T03:23:41.686Z,9.757519
2022-08-31T03:24:41.652Z,9.757516
2022-08-31T03:25:41.626Z,9.757564
2022-08-31T03:26:42.634Z,9.757512
2022-08-31T03:27:41.623Z,9.757535
2022-08-31T03:28:41.643Z,9.757483
2022-08-31T03:29:41.604Z,9.757521
2022-08-31T03:30:41.618Z,9.757562
2022-08-31T03:31:41.598Z,9.757530
2022-08-31T03:32:41.583Z,9.757552
2022-08-31T03:33:41.607Z,9.757469
2022-08-31T03:34:41.563Z,9.757398
2022-08-31T03:35:41.560Z,9.757445
2022-08-31T03:36:41.571Z,9.757229
2022-08-31T03:37:41.548Z,9.757433
2022-08-31T03:38:41.729Z,9.757452
2022-08-31T03:39:41.530Z,9.757513
2022-08-31T03:40:41.555Z,9.757477
2022-08-31T03:41:41.524Z,9.757466
2022-08-31T03:42:41.538Z,9.757482
2022-08-31T03:43:41.522Z,9.757446
2022-08-31T03:44:41.492Z,9.757482
2022-08-31T03:45:41.480Z,9.757453
2022-08-31T03:46:41.506Z,9.757410
2022-08-31T03:47:42.763Z,9.757480
2022-08-31T03:48:41.487Z,9.757524
2022-08-31T03:49:41.461Z,9.757497
2022-08-31T03:50:41.441Z,9.757538
2022-08-31T03:51:41.431Z,9.757544
2022-08-31T03:52:41.424Z,9.757489
2022-08-31T03:53:41.442Z,9.757521
2022-08-31T03:54:41.403Z,9.757275
2022-08-31T03:55:41.391Z,9.757359
2022-08-31T03:56:41.392Z,9.757382
2022-08-31T03:57:41.381Z,9.757430
2022-08-31T03:58:41.402Z,9.757318
2022-08-31T03:59:41.365Z,9.757421
2022-08-31T04:00:41.349Z,9.757423
2022-08-31T04:01:41.380Z,9.757414
2022-08-31T04:02:41.385Z,9.757623
2022-08-31T04:03:41.360Z,9.757592
2022-08-31T04:04:41.313Z,9.757672
2022-08-31T04:05:41.314Z,9.757606
2022-08-31T04:06:41.310Z,9.757593
2022-08-31T04:07:42.346Z,9.757557
2022-08-31T04:08:41.315Z,9.757845
2022-08-31T04:09:41.280Z,9.757463
2022-08-31T04:10:41.267Z,9.757488
2022-08-31T04:11:45.500Z,9.757520
2022-08-31T04:12:41.252Z,9.757269
2022-08-31T04:13:41.270Z,9.757634
2022-08-31T04:14:41.232Z,9.757579
2022-08-31T04:15:41.265Z,9.757601
2022-08-31T04:16:41.281Z,9.757621
2022-08-31T04:17:41.209Z,9.757639
2022-08-31T04:18:41.238Z,9.757456
2022-08-31T04:19:41.198Z,9.757655
2022-08-31T04:20:41.179Z,9.757546
2022-08-31T04:21:41.275Z,9.757512
2022-08-31T04:22:41.167Z,9.757559
2022-08-31T04:23:41.193Z,9.757830
2022-08-31T04:24:41.155Z,9.757709
2022-08-31T04:25:41.142Z,9.757604
2022-08-31T04:26:41.138Z,9.757332
2022-08-31T04:27:41.125Z,9.757512
2022-08-31T04:28:41.149Z,9.757617
2022-08-31T04:29:41.107Z,9.757558
2022-08-31T04:30:41.182Z,9.757429
2022-08-31T04:31:41.099Z,9.757584
2022-08-31T04:32:41.084Z,9.757497
2022-08-31T04:33:41.075Z,9.757497
2022-08-31T04:34:41.101Z,9.757142
2022-08-31T04:35:41.062Z,9.757435
2022-08-31T04:36:41.054Z,9.757592
2022-08-31T04:37:45.843Z,9.757670
2022-08-31T04:38:43.074Z,9.757651
2022-08-31T04:39:50.672Z,9.757569
2022-08-31T04:40:42.083Z,9.757668
2022-08-31T04:41:41.012Z,9.757548
2022-08-31T04:42:41.003Z,9.757504
2022-08-31T04:43:41.002Z,9.757479
2022-08-31T04:44:41.018Z,9.757642
2022-08-31T04:45:41.006Z,9.757499
2022-08-31T04:46:40.980Z,9.757566
2022-08-31T04:47:40.965Z,9.757545
2022-08-31T04:48:40.955Z,9.757535
2022-08-31T04:49:40.971Z,9.757496
2022-08-31T04:50:42.832Z,9.757531
2022-08-31T04:51:41.933Z,9.757386
2022-08-31T04:52:40.914Z,9.757384
2022-08-31T04:53:40.945Z,9.757552
2022-08-31T04:54:40.939Z,9.757672
2022-08-31T04:55:40.920Z,9.758196
2022-08-31T04:56:40.884Z,9.758496
2022-08-31T04:57:40.876Z,9.758430
2022-08-31T04:58:40.903Z,9.758168
2022-08-31T04:59:40.861Z,9.757657
2022-08-31T05:00:40.867Z,9.757260
2022-08-31T05:01:43.275Z,9.757233
2022-08-31T05:02:40.891Z,9.757380
2022-08-31T05:03:40.858Z,9.757505
2022-08-31T05:04:40.824Z,9.757421
2022-08-31T05:05:40.815Z,9.757544
2022-08-31T05:06:40.813Z,9.757711
2022-08-31T05:07:40.812Z,9.757775
2022-08-31T05:08:40.823Z,9.757660
2022-08-31T05:09:40.787Z,9.757557
2022-08-31T05:10:40.783Z,9.757562
2022-08-31T05:11:40.765Z,9.757311
2022-08-31T05:12:40.762Z,9.757513
2022-08-31T05:13:40.847Z,9.757503
2022-08-31T05:14:40.739Z,9.757470
2022-08-31T05:15:40.748Z,9.757477
2022-08-31T05:16:40.723Z,9.757384
2022-08-31T05:17:40.713Z,9.757388
2022-08-31T05:18:40.742Z,9.757419
2022-08-31T05:19:41.366Z,9.757526
2022-08-31T05:20:41.685Z,9.757515
2022-08-31T05:21:40.683Z,9.757071
2022-08-31T05:22:40.671Z,9.757490
2022-08-31T05:23:40.712Z,9.757496
2022-08-31T05:24:40.661Z,9.757486
2022-08-31T05:25:40.655Z,9.757436
2022-08-31T05:26:42.149Z,9.757543
2022-08-31T05:27:40.631Z,9.757525
2022-08-31T05:28:40.619Z,9.757470
2022-08-31T05:29:40.640Z,9.757464
2022-08-31T05:30:40.622Z,9.757455
2022-08-31T05:31:40.596Z,9.757494
2022-08-31T05:32:40.594Z,9.757342
2022-08-31T05:33:40.575Z,9.757517
2022-08-31T05:34:40.606Z,9.757599
2022-08-31T05:35:40.558Z,9.757375
2022-08-31T05:36:40.560Z,9.757455
2022-08-31T05:37:40.545Z,9.757425
2022-08-31T05:38:40.533Z,9.757330
2022-08-31T05:39:40.561Z,9.757386
2022-08-31T05:40:40.601Z,9.757480
2022-08-31T05:41:40.514Z,9.757535
2022-08-31T05:42:40.500Z,9.757427
2022-08-31T05:43:40.502Z,9.757537
2022-08-31T05:44:40.519Z,9.757464
2022-08-31T05:45:40.479Z,9.757458
2022-08-31T05:46:40.577Z,9.757390
2022-08-31T05:47:40.462Z,9.757321
2022-08-31T05:48:40.637Z,9.757293
2022-08-31T05:49:41.009Z,9.757355
2022-08-31T05:50:40.459Z,9.757345
2022-08-31T05:51:40.424Z,9.757271
2022-08-31T05:52:40.417Z,9.757233
2022-08-31T05:53:40.408Z,9.757227
2022-08-31T05:54:40.438Z,9.757302
2022-08-31T05:55:40.397Z,9.757352
2022-08-31T05:56:40.388Z,9.757356
2022-08-31T05:57:40.383Z,9.757388
2022-08-31T05:58:40.420Z,9.757301
2022-08-31T05:59:40.394Z,9.757358
2022-08-31T06:00:40.351Z,9.757393
2022-08-31T06:01:40.392Z,9.757348
2022-08-31T06:02:40.340Z,9.757333
2022-08-31T06:03:40.335Z,9.757291
2022-08-31T06:04:40.344Z,9.757413
2022-08-31T06:05:40.339Z,9.757350
2022-08-31T06:06:40.303Z,9.757401
2022-08-31T06:07:40.295Z,9.757401
2022-08-31T06:08:40.288Z,9.757494
2022-08-31T06:09:40.838Z,9.757451
2022-08-31T06:10:40.270Z,9.757422
2022-08-31T06:11:40.259Z,9.757282
2022-08-31T06:12:40.249Z,9.757349
2022-08-31T06:13:40.249Z,9.757354
2022-08-31T06:14:40.850Z,9.757387
2022-08-31T06:15:42.589Z,9.757450
2022-08-31T06:16:40.281Z,9.757623
2022-08-31T06:17:40.255Z,9.757578
2022-08-31T06:18:40.201Z,9.757504
2022-08-31T06:19:40.222Z,9.757540
2022-08-31T06:20:40.186Z,9.757533
2022-08-31T06:21:50.443Z,9.757478
2022-08-31T06:22:41.191Z,9.757451
2022-08-31T06:23:40.161Z,9.757442
2022-08-31T06:24:40.186Z,9.757440
2022-08-31T06:25:40.144Z,9.757487
2022-08-31T06:26:40.147Z,9.757492
2022-08-31T06:27:40.127Z,9.757396
2022-08-31T06:28:40.115Z,9.757361
2022-08-31T06:29:40.187Z,9.757371
2022-08-31T06:30:54.436Z,9.757339
2022-08-31T06:31:42.166Z,9.757200
2022-08-31T06:32:41.087Z,9.757287
2022-08-31T06:33:40.075Z,9.757343
2022-08-31T06:34:40.105Z,9.757382
2022-08-31T06:35:40.063Z,9.757432
2022-08-31T06:36:40.049Z,9.757417
2022-08-31T06:37:40.040Z,9.757492
2022-08-31T06:38:40.040Z,9.757457
2022-08-31T06:39:40.059Z,9.757391
2022-08-31T06:40:40.141Z,9.757515
2022-08-31T06:41:40.015Z,9.757506
2022-08-31T06:42:40.013Z,9.757472
2022-08-31T06:43:39.993Z,9.757402
2022-08-31T06:44:40.027Z,9.757414
2022-08-31T06:45:39.992Z,9.757429
2022-08-31T06:46:40.021Z,9.757421
2022-08-31T06:47:39.967Z,9.757383
2022-08-31T06:48:39.954Z,9.757379
2022-08-31T06:49:39.985Z,9.757446
2022-08-31T06:50:39.941Z,9.757393
2022-08-31T06:51:39.935Z,9.757489
2022-08-31T06:52:39.930Z,9.757520
2022-08-31T06:53:39.916Z,9.757492
2022-08-31T06:54:39.943Z,9.757529
2022-08-31T06:55:39.931Z,9.757495
2022-08-31T06:56:39.898Z,9.757544
2022-08-31T06:57:39.892Z,9.757511
2022-08-31T06:58:39.877Z,9.757406
2022-08-31T06:59:39.896Z,9.757297
2022-08-31T07:00:39.860Z,9.757304
2022-08-31T07:01:39.934Z,9.757405
2022-08-31T07:02:39.876Z,9.757612
2022-08-31T07:03:39.837Z,9.757589
2022-08-31T07:04:39.877Z,9.757629
2022-08-31T07:05:39.830Z,9.757550
2022-08-31T07:06:39.823Z,9.757515
2022-08-31T07:07:39.802Z,9.757525
2022-08-31T07:08:39.788Z,9.757481
2022-08-31T07:09:39.816Z,9.757477
2022-08-31T07:10:39.779Z,9.757442
2022-08-31T07:11:43.691Z,9.757500
2022-08-31T07:12:40.756Z,9.757606
2022-08-31T07:13:39.753Z,9.757630
2022-08-31T07:14:39.774Z,9.757611
2022-08-31T07:15:39.743Z,9.757691
2022-08-31T07:16:39.765Z,9.757550
2022-08-31T07:17:39.724Z,9.757505
2022-08-31T07:18:39.707Z,9.757451
2022-08-31T07:19:44.782Z,9.757486
2022-08-31T07:20:40.693Z,9.757495
2022-08-31T07:21:39.684Z,9.757816
2022-08-31T07:22:39.678Z,9.758052
2022-08-31T07:23:39.668Z,9.757864
2022-08-31T07:24:39.692Z,9.757853
2022-08-31T07:25:39.659Z,9.757708
2022-08-31T07:26:39.652Z,9.757784
2022-08-31T07:27:39.644Z,9.757792
2022-08-31T07:28:39.630Z,9.757537
2022-08-31T07:29:39.662Z,9.757500
2022-08-31T07:30:39.657Z,9.757677
2022-08-31T07:31:39.613Z,9.757529
2022-08-31T07:32:39.594Z,9.757563
2022-08-31T07:33:39.589Z,9.757596
2022-08-31T07:34:39.612Z,9.757512
2022-08-31T07:35:39.566Z,9.757956
2022-08-31T07:36:39.572Z,9.757483
2022-08-31T07:37:39.558Z,9.757471
2022-08-31T07:38:39.547Z,9.757460
2022-08-31T07:39:39.572Z,9.757600
2022-08-31T07:40:39.604Z,9.757505
2022-08-31T07:41:39.525Z,9.757497
2022-08-31T07:42:39.512Z,9.757577
2022-08-31T07:43:39.508Z,9.757537
2022-08-31T07:44:39.526Z,9.757572
2022-08-31T07:45:39.678Z,9.757672
2022-08-31T07:46:39.481Z,9.757536
2022-08-31T07:47:39.465Z,9.757582
2022-08-31T07:48:39.471Z,9.757460
2022-08-31T07:49:39.456Z,9.757465
2022-08-31T07:50:39.469Z,9.757442
2022-08-31T07:51:39.435Z,9.757816
2022-08-31T07:52:39.428Z,9.757611
2022-08-31T07:53:39.426Z,9.757638
2022-08-31T07:54:39.408Z,9.757575
2022-08-31T07:55:39.429Z,9.757518
2022-08-31T07:56:39.396Z,9.757594
2022-08-31T07:57:39.383Z,9.757644
2022-08-31T07:58:39.374Z,9.757565
2022-08-31T07:59:39.369Z,9.757550
2022-08-31T08:00:39.382Z,9.757571
2022-08-31T08:01:39.381Z,9.757524
2022-08-31T08:02:39.391Z,9.757568
2022-08-31T08:03:39.329Z,9.757599
2022-08-31T08:04:39.325Z,9.757653
2022-08-31T08:05:39.353Z,9.757589
2022-08-31T08:06:39.336Z,9.757777
2022-08-31T08:07:39.297Z,9.757766
2022-08-31T08:08:39.292Z,9.757989
2022-08-31T08:09:39.272Z,9.757936
2022-08-31T08:10:39.300Z,9.757800
2022-08-31T08:11:39.259Z,9.757511
2022-08-31T08:12:39.254Z,9.757910
2022-08-31T08:13:39.251Z,9.758262
2022-08-31T08:14:39.243Z,9.757841
2022-08-31T08:15:40.685Z,9.758410
2022-08-31T08:16:39.319Z,9.757959
2022-08-31T08:17:39.210Z,9.757748
2022-08-31T08:18:39.206Z,9.757930
2022-08-31T08:19:39.200Z,9.757943
2022-08-31T08:20:39.400Z,9.757651
2022-08-31T08:21:39.174Z,9.757576
2022-08-31T08:22:51.588Z,9.757554
2022-08-31T08:23:41.168Z,9.757726
2022-08-31T08:24:39.157Z,9.757763
2022-08-31T08:25:39.177Z,9.757730
2022-08-31T08:26:39.132Z,9.757840
2022-08-31T08:27:39.125Z,9.757751
2022-08-31T08:28:40.560Z,9.757587
2022-08-31T08:29:40.111Z,9.757343
2022-08-31T08:30:39.125Z,9.757507
2022-08-31T08:31:39.180Z,9.757816
2022-08-31T08:32:39.082Z,9.757773
2022-08-31T08:33:39.078Z,9.757605
2022-08-31T08:34:39.071Z,9.757393
2022-08-31T08:35:39.095Z,9.757421
2022-08-31T08:36:39.057Z,9.757443
2022-08-31T08:37:57.393Z,9.757463
2022-08-31T08:38:41.042Z,9.757390
2022-08-31T08:39:39.030Z,9.757363
2022-08-31T08:40:39.135Z,9.757387
2022-08-31T08:41:39.015Z,9.757525
2022-08-31T08:42:39.001Z,9.757300
2022-08-31T08:43:38.994Z,9.757298
2022-08-31T08:44:38.994Z,9.757605
2022-08-31T08:45:39.049Z,9.757472
2022-08-31T08:46:39.030Z,9.757454
2022-08-31T08:47:39.343Z,9.757489
2022-08-31T08:48:38.962Z,9.757609
2022-08-31T08:49:38.946Z,9.757633
2022-08-31T08:50:38.973Z,9.757679
2022-08-31T08:51:38.941Z,9.757707
2022-08-31T08:52:38.921Z,9.757760
2022-08-31T08:53:38.916Z,9.757655
2022-08-31T08:54:38.959Z,9.757626
2022-08-31T08:55:38.947Z,9.757629
2022-08-31T08:56:38.896Z,9.757688
2022-08-31T08:57:38.888Z,9.757793
2022-08-31T08:58:38.877Z,9.757840
2022-08-31T08:59:38.877Z,9.757723
2022-08-31T09:00:38.930Z,9.757450
2022-08-31T09:01:38.910Z,9.757431
2022-08-31T09:02:38.941Z,9.757529
2022-08-31T09:03:38.831Z,9.757414
2022-08-31T09:04:38.827Z,9.757416
2022-08-31T09:05:38.839Z,9.757434
2022-08-31T09:06:40.574Z,9.757457
2022-08-31T09:07:39.797Z,9.757473
2022-08-31T09:08:38.800Z,9.757496
2022-08-31T09:09:38.781Z,9.757437
2022-08-31T09:10:38.799Z,9.757462
2022-08-31T09:11:38.762Z,9.757444
2022-08-31T09:12:38.758Z,9.757475
2022-08-31T09:13:38.751Z,9.757489
2022-08-31T09:14:38.734Z,9.757440
2022-08-31T09:15:38.838Z,9.757438
2022-08-31T09:16:38.740Z,9.757483
2022-08-31T09:17:38.716Z,9.757470
2022-08-31T09:18:38.717Z,9.757405
2022-08-31T09:19:38.708Z,9.757473
2022-08-31T09:20:38.727Z,9.757508
2022-08-31T09:21:38.681Z,9.757460
2022-08-31T09:22:38.682Z,9.757506
2022-08-31T09:23:38.695Z,9.757618
2022-08-31T09:24:38.672Z,9.757529
2022-08-31T09:25:38.687Z,9.757537
2022-08-31T09:26:38.641Z,9.757496
2022-08-31T09:27:38.640Z,9.757455
2022-08-31T09:28:38.626Z,9.757564
2022-08-31T09:29:38.617Z,9.757409
2022-08-31T09:30:38.645Z,9.757378
2022-08-31T09:31:38.691Z,9.757503
2022-08-31T09:32:38.604Z,9.757473
2022-08-31T09:33:38.586Z,9.757430
2022-08-31T09:34:38.592Z,9.757467
2022-08-31T09:35:38.618Z,9.757462
2022-08-31T09:36:38.560Z,9.757445
2022-08-31T09:37:38.558Z,9.757381
2022-08-31T09:38:38.546Z,9.757523
2022-08-31T09:39:38.537Z,9.757464
2022-08-31T09:40:38.584Z,9.757519
2022-08-31T09:41:38.548Z,9.757636
2022-08-31T09:42:38.517Z,9.757524
2022-08-31T09:43:38.544Z,9.757508
2022-08-31T09:44:38.516Z,9.757514
2022-08-31T09:45:42.106Z,9.757543
2022-08-31T09:46:39.481Z,9.757589
2022-08-31T09:47:38.477Z,9.757509
2022-08-31T09:48:38.471Z,9.757406
2022-08-31T09:49:38.467Z,9.757537
2022-08-31T09:50:38.502Z,9.757633
2022-08-31T09:51:38.473Z,9.757537
2022-08-31T09:52:38.436Z,9.757520
2022-08-31T09:53:38.433Z,9.757360
2022-08-31T09:54:40.206Z,9.757540
2022-08-31T09:55:38.412Z,9.757455
2022-08-31T09:56:38.429Z,9.757534
2022-08-31T09:57:38.405Z,9.757542
2022-08-31T09:58:38.389Z,9.757624
2022-08-31T09:59:38.861Z,9.757598
2022-08-31T10:00:38.380Z,9.757573
2022-08-31T10:01:38.522Z,9.757439
2022-08-31T10:02:38.384Z,9.757351
2022-08-31T10:03:38.351Z,9.757523
2022-08-31T10:04:38.388Z,9.757392
2022-08-31T10:05:38.336Z,9.757410
2022-08-31T10:06:38.356Z,9.757513
2022-08-31T10:07:38.313Z,9.757565
2022-08-31T10:08:38.313Z,9.757787
2022-08-31T10:09:38.298Z,9.757524
2022-08-31T10:10:38.324Z,9.757633
2022-08-31T10:11:38.290Z,9.757915
2022-08-31T10:12:38.276Z,9.757546
2022-08-31T10:13:38.273Z,9.757174
2022-08-31T10:14:38.263Z,9.757633
2022-08-31T10:15:38.366Z,9.757932
2022-08-31T10:16:38.250Z,9.757682
2022-08-31T10:17:38.238Z,9.757460
2022-08-31T10:18:38.237Z,9.757533
2022-08-31T10:19:38.222Z,9.757804
2022-08-31T10:20:38.250Z,9.757925
2022-08-31T10:21:38.213Z,9.757650
2022-08-31T10:22:38.197Z,9.757662
2022-08-31T10:23:38.180Z,9.757637
2022-08-31T10:24:38.271Z,9.756743
2022-08-31T10:25:38.203Z,9.757547
2022-08-31T10:26:38.168Z,9.757800
2022-08-31T10:27:38.159Z,9.757789
2022-08-31T10:28:38.191Z,9.757639
2022-08-31T10:29:38.141Z,9.757968
2022-08-31T10:30:38.280Z,9.757657
2022-08-31T10:31:38.178Z,9.757699
2022-08-31T10:32:38.115Z,9.757729
2022-08-31T10:33:38.128Z,9.757517
2022-08-31T10:34:38.094Z,9.757510
2022-08-31T10:35:38.095Z,9.757434
2022-08-31T10:36:38.111Z,9.757581
2022-08-31T10:37:38.074Z,9.757760
2022-08-31T10:38:38.079Z,9.757874
2022-08-31T10:39:38.064Z,9.757923
2022-08-31T10:40:38.096Z,9.757787
2022-08-31T10:41:38.080Z,9.757601
2022-08-31T10:42:38.054Z,9.757384
2022-08-31T10:43:38.037Z,9.757728
2022-08-31T10:44:38.025Z,9.758019
2022-08-31T10:45:38.018Z,9.757697
2022-08-31T10:46:38.080Z,9.757456
2022-08-31T10:47:38.004Z,9.757444
2022-08-31T10:48:38.001Z,9.757561
2022-08-31T10:49:37.977Z,9.757529
2022-08-31T10:50:38.014Z,9.757810
2022-08-31T10:51:37.965Z,9.757817
2022-08-31T10:52:37.950Z,9.757517
2022-08-31T10:53:40.036Z,9.757574
2022-08-31T10:54:37.952Z,9.758049
2022-08-31T10:55:37.960Z,9.758080
2022-08-31T10:56:37.925Z,9.757937
2022-08-31T10:57:37.918Z,9.757743
2022-08-31T10:58:37.903Z,9.757904
2022-08-31T10:59:37.897Z,9.757944
2022-08-31T11:00:37.917Z,9.757576
2022-08-31T11:01:37.958Z,9.757683
2022-08-31T11:02:37.876Z,9.757731
2022-08-31T11:03:37.918Z,9.757665
2022-08-31T11:04:37.900Z,9.757821
2022-08-31T11:05:37.885Z,9.757824
2022-08-31T11:06:37.844Z,9.757855
2022-08-31T11:07:37.836Z,9.757855
2022-08-31T11:08:37.826Z,9.757730
2022-08-31T11:09:37.820Z,9.757710
2022-08-31T11:10:37.837Z,9.757438
2022-08-31T11:11:42.463Z,9.757426
2022-08-31T11:12:38.799Z,9.757594
2022-08-31T11:13:37.785Z,9.757863
2022-08-31T11:14:37.777Z,9.757809
2022-08-31T11:15:37.866Z,9.758042
2022-08-31T11:16:37.777Z,9.758065
2022-08-31T11:17:37.763Z,9.757609
2022-08-31T11:18:37.751Z,9.756685
2022-08-31T11:19:37.746Z,9.757507
2022-08-31T11:20:37.804Z,9.757660
2022-08-31T11:21:37.759Z,9.757674
2022-08-31T11:22:37.768Z,9.757544
2022-08-31T11:23:42.246Z,9.757646
2022-08-31T11:24:38.705Z,9.757591
2022-08-31T11:25:37.753Z,9.757487
2022-08-31T11:26:37.683Z,9.757446
2022-08-31T11:27:37.679Z,9.757591
2022-08-31T11:28:37.670Z,9.757545
2022-08-31T11:29:37.662Z,9.757413
2022-08-31T11:30:41.847Z,9.757174
2022-08-31T11:31:38.768Z,9.757260
2022-08-31T11:32:37.641Z,9.757585
2022-08-31T11:33:37.654Z,9.757344
2022-08-31T11:34:37.619Z,9.757458
2022-08-31T11:35:42.172Z,9.757505
2022-08-31T11:36:38.603Z,9.757639
2022-08-31T11:37:37.597Z,9.757683
2022-08-31T11:38:37.591Z,9.757609
2022-08-31T11:39:37.591Z,9.757458
2022-08-31T11:40:37.739Z,9.757255
2022-08-31T11:41:37.572Z,9.757439
2022-08-31T11:42:37.558Z,9.757413
2022-08-31T11:43:37.553Z,9.757542
2022-08-31T11:44:37.542Z,9.757432